High Island, Texas
Current Conditions -  °F | °C
As of 2:35 PM on Friday 21 Nov 2014 (Local Time) from KXIH Reporting Station
Broken Clouds Broken Clouds  
Wind Chill: 68°   Ceiling: 9500
Heat Index: 68°   Visibility: 8mi
Dew Point: 63°   Wind: 18mph
Humidity: 83%   Direction: 130°SE
Pressure: 30.09"   Gusts: NA
Location:  29.57°N, 94.39°W
Report Text: KXIH 212035Z AUTO 13016KT 8SM BKN095 20/17 A3009 RMK A01
Loading
Personal Weather Stations






























Interactive Weather Map New forecast layout! Learn more

10-Day Weather Forecast

Advertisements
Track Severe Weather on mobile